sensor_id;sensor_type;location;lat;lon;timestamp;P1;durP1;ratioP1;P2;durP2;ratioP2
870;SDS011;422;51.280;7.236;2022-07-23T00:00:39;31.30;;;27.60;;
870;SDS011;422;51.280;7.236;2022-07-23T00:03:09;30.27;;;26.50;;
870;SDS011;422;51.280;7.236;2022-07-23T00:05:37;29.77;;;25.87;;
870;SDS011;422;51.280;7.236;2022-07-23T00:08:04;31.97;;;26.67;;
870;SDS011;422;51.280;7.236;2022-07-23T00:10:33;33.83;;;25.00;;
870;SDS011;422;51.280;7.236;2022-07-23T00:13:00;28.53;;;25.43;;
870;SDS011;422;51.280;7.236;2022-07-23T00:15:34;26.43;;;23.70;;
870;SDS011;422;51.280;7.236;2022-07-23T00:18:03;29.73;;;26.23;;
870;SDS011;422;51.280;7.236;2022-07-23T00:20:31;30.77;;;25.37;;
870;SDS011;422;51.280;7.236;2022-07-23T00:23:01;31.70;;;27.03;;
870;SDS011;422;51.280;7.236;2022-07-23T00:25:28;34.27;;;24.87;;
870;SDS011;422;51.280;7.236;2022-07-23T00:27:57;31.77;;;26.23;;
870;SDS011;422;51.280;7.236;2022-07-23T00:30:25;26.03;;;23.30;;
870;SDS011;422;51.280;7.236;2022-07-23T00:32:55;29.57;;;24.97;;
870;SDS011;422;51.280;7.236;2022-07-23T00:35:24;29.40;;;23.80;;
870;SDS011;422;51.280;7.236;2022-07-23T00:37:52;32.30;;;24.87;;
870;SDS011;422;51.280;7.236;2022-07-23T00:40:20;30.97;;;24.90;;
870;SDS011;422;51.280;7.236;2022-07-23T00:42:49;30.63;;;24.97;;
870;SDS011;422;51.280;7.236;2022-07-23T00:45:18;28.43;;;23.37;;
870;SDS011;422;51.280;7.236;2022-07-23T00:47:48;27.67;;;23.07;;
870;SDS011;422;51.280;7.236;2022-07-23T00:50:18;28.40;;;23.90;;
870;SDS011;422;51.280;7.236;2022-07-23T00:52:49;30.27;;;23.80;;
870;SDS011;422;51.280;7.236;2022-07-23T00:55:18;25.27;;;22.63;;
870;SDS011;422;51.280;7.236;2022-07-23T00:57:45;31.53;;;25.00;;
870;SDS011;422;51.280;7.236;2022-07-23T01:00:14;27.47;;;24.20;;
870;SDS011;422;51.280;7.236;2022-07-23T01:02:46;28.10;;;23.60;;
870;SDS011;422;51.280;7.236;2022-07-23T01:05:14;29.17;;;24.97;;
870;SDS011;422;51.280;7.236;2022-07-23T01:07:51;28.70;;;24.37;;
870;SDS011;422;51.280;7.236;2022-07-23T01:10:19;29.13;;;24.63;;
870;SDS011;422;51.280;7.236;2022-07-23T01:12:57;33.73;;;24.83;;
870;SDS011;422;51.280;7.236;2022-07-23T01:15:28;28.50;;;24.77;;
870;SDS011;422;51.280;7.236;2022-07-23T01:18:00;26.90;;;22.90;;
870;SDS011;422;51.280;7.236;2022-07-23T01:20:28;31.37;;;25.53;;
870;SDS011;422;51.280;7.236;2022-07-23T01:22:59;29.13;;;24.23;;
870;SDS011;422;51.280;7.236;2022-07-23T01:25:26;29.53;;;23.83;;
870;SDS011;422;51.280;7.236;2022-07-23T01:27:55;30.17;;;23.30;;
870;SDS011;422;51.280;7.236;2022-07-23T01:30:22;31.03;;;26.07;;
870;SDS011;422;51.280;7.236;2022-07-23T01:32:50;29.37;;;23.80;;
870;SDS011;422;51.280;7.236;2022-07-23T01:35:17;29.63;;;24.90;;
870;SDS011;422;51.280;7.236;2022-07-23T01:37:46;34.17;;;26.80;;
870;SDS011;422;51.280;7.236;2022-07-23T01:40:15;29.20;;;25.27;;
870;SDS011;422;51.280;7.236;2022-07-23T01:42:44;35.40;;;28.07;;
870;SDS011;422;51.280;7.236;2022-07-23T01:45:12;33.37;;;26.30;;
870;SDS011;422;51.280;7.236;2022-07-23T01:47:39;32.73;;;27.30;;
870;SDS011;422;51.280;7.236;2022-07-23T01:50:09;33.40;;;28.50;;
870;SDS011;422;51.280;7.236;2022-07-23T01:52:36;30.57;;;26.67;;
870;SDS011;422;51.280;7.236;2022-07-23T01:55:04;30.30;;;25.77;;
870;SDS011;422;51.280;7.236;2022-07-23T01:57:33;29.93;;;26.37;;
870;SDS011;422;51.280;7.236;2022-07-23T02:00:01;31.00;;;26.80;;
870;SDS011;422;51.280;7.236;2022-07-23T02:02:28;33.57;;;25.17;;
870;SDS011;422;51.280;7.236;2022-07-23T02:04:56;31.97;;;26.67;;
870;SDS011;422;51.280;7.236;2022-07-23T02:07:23;32.77;;;26.87;;
870;SDS011;422;51.280;7.236;2022-07-23T02:09:53;33.67;;;27.10;;
870;SDS011;422;51.280;7.236;2022-07-23T02:12:21;29.93;;;25.20;;
870;SDS011;422;51.280;7.236;2022-07-23T02:14:52;32.63;;;24.97;;
870;SDS011;422;51.280;7.236;2022-07-23T02:17:19;32.07;;;28.10;;
870;SDS011;422;51.280;7.236;2022-07-23T02:19:46;31.60;;;24.53;;
870;SDS011;422;51.280;7.236;2022-07-23T02:22:15;31.63;;;26.87;;
870;SDS011;422;51.280;7.236;2022-07-23T02:24:43;30.63;;;24.50;;
870;SDS011;422;51.280;7.236;2022-07-23T02:27:10;28.50;;;23.80;;
870;SDS011;422;51.280;7.236;2022-07-23T02:29:39;30.00;;;23.87;;
870;SDS011;422;51.280;7.236;2022-07-23T02:32:08;31.60;;;23.30;;
870;SDS011;422;51.280;7.236;2022-07-23T02:34:35;28.40;;;23.63;;
870;SDS011;422;51.280;7.236;2022-07-23T02:37:02;30.20;;;24.67;;
870;SDS011;422;51.280;7.236;2022-07-23T02:39:33;29.77;;;24.60;;
870;SDS011;422;51.280;7.236;2022-07-23T02:42:00;29.50;;;25.27;;
870;SDS011;422;51.280;7.236;2022-07-23T02:44:28;35.97;;;28.97;;
870;SDS011;422;51.280;7.236;2022-07-23T02:46:55;30.37;;;24.77;;
870;SDS011;422;51.280;7.236;2022-07-23T02:49:23;32.80;;;26.00;;
870;SDS011;422;51.280;7.236;2022-07-23T02:51:50;32.47;;;25.73;;
870;SDS011;422;51.280;7.236;2022-07-23T02:54:19;29.50;;;26.10;;
870;SDS011;422;51.280;7.236;2022-07-23T02:56:47;35.07;;;25.33;;
870;SDS011;422;51.280;7.236;2022-07-23T02:59:15;33.33;;;26.23;;
870;SDS011;422;51.280;7.236;2022-07-23T03:01:43;30.47;;;25.40;;
870;SDS011;422;51.280;7.236;2022-07-23T03:04:10;31.20;;;26.03;;
870;SDS011;422;51.280;7.236;2022-07-23T03:06:39;28.97;;;25.00;;
870;SDS011;422;51.280;7.236;2022-07-23T03:09:07;34.33;;;26.60;;
870;SDS011;422;51.280;7.236;2022-07-23T03:11:37;29.03;;;24.47;;
870;SDS011;422;51.280;7.236;2022-07-23T03:14:04;30.03;;;23.77;;
870;SDS011;422;51.280;7.236;2022-07-23T03:16:32;32.37;;;24.90;;
870;SDS011;422;51.280;7.236;2022-07-23T03:19:00;29.03;;;25.60;;
870;SDS011;422;51.280;7.236;2022-07-23T03:21:27;29.40;;;25.90;;
870;SDS011;422;51.280;7.236;2022-07-23T03:23:58;30.30;;;25.53;;
870;SDS011;422;51.280;7.236;2022-07-23T03:26:26;27.37;;;24.43;;
870;SDS011;422;51.280;7.236;2022-07-23T03:28:53;27.33;;;23.43;;
870;SDS011;422;51.280;7.236;2022-07-23T03:31:20;29.73;;;24.03;;
870;SDS011;422;51.280;7.236;2022-07-23T03:33:47;30.97;;;24.43;;
870;SDS011;422;51.280;7.236;2022-07-23T03:36:16;32.67;;;23.20;;
870;SDS011;422;51.280;7.236;2022-07-23T03:38:48;30.70;;;24.80;;
870;SDS011;422;51.280;7.236;2022-07-23T03:41:18;25.27;;;22.07;;
870;SDS011;422;51.280;7.236;2022-07-23T03:43:46;29.47;;;24.93;;
870;SDS011;422;51.280;7.236;2022-07-23T03:46:13;29.50;;;23.90;;
870;SDS011;422;51.280;7.236;2022-07-23T03:48:40;30.40;;;23.63;;
870;SDS011;422;51.280;7.236;2022-07-23T03:51:08;27.80;;;22.33;;
870;SDS011;422;51.280;7.236;2022-07-23T03:53:35;28.90;;;23.87;;
870;SDS011;422;51.280;7.236;2022-07-23T03:56:02;27.63;;;23.97;;
870;SDS011;422;51.280;7.236;2022-07-23T03:58:31;29.20;;;23.40;;
870;SDS011;422;51.280;7.236;2022-07-23T04:01:01;30.67;;;25.00;;
870;SDS011;422;51.280;7.236;2022-07-23T04:03:30;26.43;;;22.73;;
870;SDS011;422;51.280;7.236;2022-07-23T04:05:57;27.10;;;22.33;;
870;SDS011;422;51.280;7.236;2022-07-23T04:08:25;28.43;;;22.83;;
870;SDS011;422;51.280;7.236;2022-07-23T04:10:52;27.17;;;22.43;;
870;SDS011;422;51.280;7.236;2022-07-23T04:13:20;31.37;;;23.03;;
870;SDS011;422;51.280;7.236;2022-07-23T04:15:54;30.40;;;24.03;;
870;SDS011;422;51.280;7.236;2022-07-23T04:18:23;33.30;;;25.03;;
870;SDS011;422;51.280;7.236;2022-07-23T04:20:51;27.00;;;23.90;;
870;SDS011;422;51.280;7.236;2022-07-23T04:23:18;29.20;;;22.97;;
870;SDS011;422;51.280;7.236;2022-07-23T04:25:45;33.20;;;24.17;;
870;SDS011;422;51.280;7.236;2022-07-23T04:28:13;31.67;;;23.60;;
870;SDS011;422;51.280;7.236;2022-07-23T04:30:40;34.40;;;25.43;;
870;SDS011;422;51.280;7.236;2022-07-23T04:33:09;34.10;;;24.37;;
870;SDS011;422;51.280;7.236;2022-07-23T04:35:38;30.37;;;24.90;;
870;SDS011;422;51.280;7.236;2022-07-23T04:38:05;44.33;;;26.70;;
870;SDS011;422;51.280;7.236;2022-07-23T04:40:32;28.97;;;24.27;;
870;SDS011;422;51.280;7.236;2022-07-23T04:43:00;30.70;;;25.83;;
870;SDS011;422;51.280;7.236;2022-07-23T04:45:36;31.20;;;23.97;;
870;SDS011;422;51.280;7.236;2022-07-23T04:48:04;30.50;;;23.70;;
870;SDS011;422;51.280;7.236;2022-07-23T04:50:33;31.93;;;24.73;;
870;SDS011;422;51.280;7.236;2022-07-23T04:53:02;30.70;;;25.33;;
870;SDS011;422;51.280;7.236;2022-07-23T04:55:29;27.30;;;23.37;;
870;SDS011;422;51.280;7.236;2022-07-23T04:57:56;33.27;;;26.00;;
870;SDS011;422;51.280;7.236;2022-07-23T05:00:24;29.00;;;23.97;;
870;SDS011;422;51.280;7.236;2022-07-23T05:02:51;28.63;;;22.50;;
870;SDS011;422;51.280;7.236;2022-07-23T05:05:18;28.03;;;22.73;;
870;SDS011;422;51.280;7.236;2022-07-23T05:07:47;29.93;;;23.00;;
870;SDS011;422;51.280;7.236;2022-07-23T05:10:17;31.43;;;25.57;;
870;SDS011;422;51.280;7.236;2022-07-23T05:12:48;27.50;;;23.33;;
870;SDS011;422;51.280;7.236;2022-07-23T05:15:17;26.30;;;22.77;;
870;SDS011;422;51.280;7.236;2022-07-23T05:17:46;44.57;;;24.43;;
870;SDS011;422;51.280;7.236;2022-07-23T05:20:16;33.87;;;25.50;;
870;SDS011;422;51.280;7.236;2022-07-23T05:22:44;34.13;;;26.97;;
870;SDS011;422;51.280;7.236;2022-07-23T05:25:12;29.53;;;26.10;;
870;SDS011;422;51.280;7.236;2022-07-23T05:27:40;32.00;;;25.00;;
870;SDS011;422;51.280;7.236;2022-07-23T05:30:07;26.33;;;23.50;;
870;SDS011;422;51.280;7.236;2022-07-23T05:32:38;31.40;;;24.17;;
870;SDS011;422;51.280;7.236;2022-07-23T05:35:06;24.83;;;22.27;;
870;SDS011;422;51.280;7.236;2022-07-23T05:37:36;23.93;;;21.43;;
870;SDS011;422;51.280;7.236;2022-07-23T05:40:05;21.77;;;19.00;;
870;SDS011;422;51.280;7.236;2022-07-23T05:42:36;18.60;;;16.80;;
870;SDS011;422;51.280;7.236;2022-07-23T05:45:04;19.90;;;17.40;;
870;SDS011;422;51.280;7.236;2022-07-23T05:47:39;17.63;;;15.93;;
870;SDS011;422;51.280;7.236;2022-07-23T05:50:09;21.20;;;18.63;;
870;SDS011;422;51.280;7.236;2022-07-23T05:52:37;19.37;;;17.47;;
870;SDS011;422;51.280;7.236;2022-07-23T05:55:05;18.47;;;16.60;;
870;SDS011;422;51.280;7.236;2022-07-23T05:57:38;17.90;;;16.10;;
870;SDS011;422;51.280;7.236;2022-07-23T06:00:06;19.73;;;17.83;;
870;SDS011;422;51.280;7.236;2022-07-23T06:02:40;18.27;;;16.37;;
870;SDS011;422;51.280;7.236;2022-07-23T06:05:07;17.23;;;15.63;;
870;SDS011;422;51.280;7.236;2022-07-23T06:07:35;18.00;;;16.20;;
870;SDS011;422;51.280;7.236;2022-07-23T06:10:03;21.97;;;17.63;;
870;SDS011;422;51.280;7.236;2022-07-23T06:12:31;20.47;;;18.27;;
870;SDS011;422;51.280;7.236;2022-07-23T06:15:00;21.00;;;19.00;;
870;SDS011;422;51.280;7.236;2022-07-23T06:17:27;21.77;;;19.67;;
870;SDS011;422;51.280;7.236;2022-07-23T06:19:55;21.67;;;19.07;;
870;SDS011;422;51.280;7.236;2022-07-23T06:22:22;21.40;;;19.30;;
870;SDS011;422;51.280;7.236;2022-07-23T06:24:50;21.17;;;18.97;;
870;SDS011;422;51.280;7.236;2022-07-23T06:27:18;21.47;;;18.43;;
870;SDS011;422;51.280;7.236;2022-07-23T06:29:45;21.30;;;19.30;;
870;SDS011;422;51.280;7.236;2022-07-23T06:32:14;20.40;;;18.40;;
870;SDS011;422;51.280;7.236;2022-07-23T06:34:41;20.00;;;18.10;;
870;SDS011;422;51.280;7.236;2022-07-23T06:37:08;19.83;;;17.93;;
870;SDS011;422;51.280;7.236;2022-07-23T06:39:36;20.90;;;18.80;;
870;SDS011;422;51.280;7.236;2022-07-23T06:42:03;20.40;;;18.40;;
870;SDS011;422;51.280;7.236;2022-07-23T06:44:31;18.13;;;16.53;;
870;SDS011;422;51.280;7.236;2022-07-23T06:46:58;16.60;;;14.97;;
870;SDS011;422;51.280;7.236;2022-07-23T06:49:26;17.70;;;15.93;;
870;SDS011;422;51.280;7.236;2022-07-23T06:51:54;17.00;;;15.47;;
870;SDS011;422;51.280;7.236;2022-07-23T06:54:23;17.90;;;16.40;;
870;SDS011;422;51.280;7.236;2022-07-23T06:56:50;16.83;;;15.23;;
870;SDS011;422;51.280;7.236;2022-07-23T06:59:17;16.37;;;13.40;;
870;SDS011;422;51.280;7.236;2022-07-23T07:01:45;15.23;;;13.73;;
870;SDS011;422;51.280;7.236;2022-07-23T07:04:15;16.70;;;15.10;;
870;SDS011;422;51.280;7.236;2022-07-23T07:06:46;16.10;;;14.50;;
870;SDS011;422;51.280;7.236;2022-07-23T07:09:13;17.83;;;16.10;;
870;SDS011;422;51.280;7.236;2022-07-23T07:11:41;15.40;;;13.93;;
870;SDS011;422;51.280;7.236;2022-07-23T07:14:14;16.83;;;15.20;;
870;SDS011;422;51.280;7.236;2022-07-23T07:16:41;19.20;;;16.73;;
870;SDS011;422;51.280;7.236;2022-07-23T07:19:08;17.23;;;15.53;;
870;SDS011;422;51.280;7.236;2022-07-23T07:21:35;17.33;;;15.53;;
870;SDS011;422;51.280;7.236;2022-07-23T07:24:07;17.40;;;15.67;;
870;SDS011;422;51.280;7.236;2022-07-23T07:26:34;18.17;;;16.47;;
870;SDS011;422;51.280;7.236;2022-07-23T07:29:06;19.10;;;17.23;;
870;SDS011;422;51.280;7.236;2022-07-23T07:31:35;19.20;;;17.30;;
870;SDS011;422;51.280;7.236;2022-07-23T07:34:09;20.50;;;18.43;;
870;SDS011;422;51.280;7.236;2022-07-23T07:36:38;20.70;;;18.70;;
870;SDS011;422;51.280;7.236;2022-07-23T07:39:10;22.33;;;20.13;;
870;SDS011;422;51.280;7.236;2022-07-23T07:41:38;23.73;;;21.33;;
870;SDS011;422;51.280;7.236;2022-07-23T07:44:08;22.27;;;19.97;;
870;SDS011;422;51.280;7.236;2022-07-23T07:46:35;23.57;;;21.07;;
870;SDS011;422;51.280;7.236;2022-07-23T07:49:08;21.00;;;19.00;;
870;SDS011;422;51.280;7.236;2022-07-23T07:51:35;21.87;;;19.80;;
870;SDS011;422;51.280;7.236;2022-07-23T07:54:03;22.60;;;20.40;;
870;SDS011;422;51.280;7.236;2022-07-23T07:56:31;26.20;;;23.73;;
870;SDS011;422;51.280;7.236;2022-07-23T07:59:00;25.20;;;22.73;;
870;SDS011;422;51.280;7.236;2022-07-23T08:01:28;26.47;;;23.90;;
870;SDS011;422;51.280;7.236;2022-07-23T08:03:57;23.13;;;20.57;;
870;SDS011;422;51.280;7.236;2022-07-23T08:06:25;24.00;;;21.60;;
870;SDS011;422;51.280;7.236;2022-07-23T08:08:53;20.07;;;17.97;;
870;SDS011;422;51.280;7.236;2022-07-23T08:11:20;19.60;;;17.80;;
870;SDS011;422;51.280;7.236;2022-07-23T08:13:53;22.17;;;20.17;;
870;SDS011;422;51.280;7.236;2022-07-23T08:16:22;20.20;;;18.40;;
870;SDS011;422;51.280;7.236;2022-07-23T08:18:49;22.10;;;19.90;;
870;SDS011;422;51.280;7.236;2022-07-23T08:21:16;21.07;;;19.27;;
870;SDS011;422;51.280;7.236;2022-07-23T08:23:45;20.63;;;18.73;;
870;SDS011;422;51.280;7.236;2022-07-23T08:26:12;23.00;;;20.90;;
870;SDS011;422;51.280;7.236;2022-07-23T08:28:41;21.37;;;19.37;;
870;SDS011;422;51.280;7.236;2022-07-23T08:31:12;21.87;;;20.03;;
870;SDS011;422;51.280;7.236;2022-07-23T08:33:42;19.70;;;17.93;;
870;SDS011;422;51.280;7.236;2022-07-23T08:36:12;18.90;;;17.10;;
870;SDS011;422;51.280;7.236;2022-07-23T08:38:42;21.17;;;19.37;;
870;SDS011;422;51.280;7.236;2022-07-23T08:41:09;19.47;;;17.67;;
870;SDS011;422;51.280;7.236;2022-07-23T08:43:37;19.87;;;18.17;;
870;SDS011;422;51.280;7.236;2022-07-23T08:46:05;21.03;;;18.90;;
870;SDS011;422;51.280;7.236;2022-07-23T08:48:35;21.73;;;19.70;;
870;SDS011;422;51.280;7.236;2022-07-23T08:51:06;22.73;;;20.73;;
870;SDS011;422;51.280;7.236;2022-07-23T08:53:39;24.83;;;22.53;;
870;SDS011;422;51.280;7.236;2022-07-23T08:56:08;22.83;;;21.00;;
870;SDS011;422;51.280;7.236;2022-07-23T08:58:35;21.80;;;20.10;;
870;SDS011;422;51.280;7.236;2022-07-23T09:01:03;22.90;;;20.77;;
870;SDS011;422;51.280;7.236;2022-07-23T09:03:31;22.80;;;21.00;;
870;SDS011;422;51.280;7.236;2022-07-23T09:06:07;23.77;;;21.87;;
870;SDS011;422;51.280;7.236;2022-07-23T09:08:37;21.00;;;19.33;;
870;SDS011;422;51.280;7.236;2022-07-23T09:11:05;22.40;;;20.30;;
870;SDS011;422;51.280;7.236;2022-07-23T09:13:37;24.63;;;22.60;;
870;SDS011;422;51.280;7.236;2022-07-23T09:16:08;22.90;;;21.00;;
870;SDS011;422;51.280;7.236;2022-07-23T09:18:40;21.30;;;19.60;;
870;SDS011;422;51.280;7.236;2022-07-23T09:21:16;22.97;;;21.07;;
870;SDS011;422;51.280;7.236;2022-07-23T09:23:46;21.13;;;19.53;;
870;SDS011;422;51.280;7.236;2022-07-23T09:26:24;20.00;;;18.40;;
870;SDS011;422;51.280;7.236;2022-07-23T09:29:03;22.20;;;20.60;;
870;SDS011;422;51.280;7.236;2022-07-23T09:31:41;21.33;;;19.83;;
870;SDS011;422;51.280;7.236;2022-07-23T09:34:20;20.53;;;18.97;;
870;SDS011;422;51.280;7.236;2022-07-23T09:36:51;19.57;;;18.07;;
870;SDS011;422;51.280;7.236;2022-07-23T09:39:25;21.00;;;19.40;;
870;SDS011;422;51.280;7.236;2022-07-23T09:42:12;23.00;;;21.07;;
870;SDS011;422;51.280;7.236;2022-07-23T09:44:44;20.30;;;18.70;;
870;SDS011;422;51.280;7.236;2022-07-23T09:47:12;20.63;;;19.03;;
870;SDS011;422;51.280;7.236;2022-07-23T09:50:02;19.43;;;17.77;;
870;SDS011;422;51.280;7.236;2022-07-23T09:52:34;18.33;;;16.93;;
870;SDS011;422;51.280;7.236;2022-07-23T09:55:03;19.20;;;17.80;;
870;SDS011;422;51.280;7.236;2022-07-23T09:57:35;18.53;;;17.20;;
870;SDS011;422;51.280;7.236;2022-07-23T10:00:05;19.00;;;17.70;;
870;SDS011;422;51.280;7.236;2022-07-23T10:02:39;16.87;;;15.47;;
870;SDS011;422;51.280;7.236;2022-07-23T10:05:08;17.90;;;16.43;;
870;SDS011;422;51.280;7.236;2022-07-23T10:07:43;18.13;;;16.57;;
870;SDS011;422;51.280;7.236;2022-07-23T10:10:11;15.90;;;14.80;;
870;SDS011;422;51.280;7.236;2022-07-23T10:12:45;16.03;;;14.77;;
870;SDS011;422;51.280;7.236;2022-07-23T10:15:29;16.87;;;15.60;;
870;SDS011;422;51.280;7.236;2022-07-23T10:17:57;17.60;;;16.50;;
870;SDS011;422;51.280;7.236;2022-07-23T10:20:26;16.90;;;15.70;;
870;SDS011;422;51.280;7.236;2022-07-23T10:22:59;15.90;;;14.70;;
870;SDS011;422;51.280;7.236;2022-07-23T10:25:39;12.60;;;11.80;;
870;SDS011;422;51.280;7.236;2022-07-23T10:28:12;15.20;;;14.03;;
870;SDS011;422;51.280;7.236;2022-07-23T10:30:52;14.20;;;13.10;;
870;SDS011;422;51.280;7.236;2022-07-23T10:33:41;16.27;;;15.10;;
870;SDS011;422;51.280;7.236;2022-07-23T10:36:18;16.30;;;15.07;;
870;SDS011;422;51.280;7.236;2022-07-23T10:38:48;16.90;;;15.60;;
870;SDS011;422;51.280;7.236;2022-07-23T10:41:30;12.57;;;11.43;;
870;SDS011;422;51.280;7.236;2022-07-23T10:44:06;14.63;;;13.50;;
870;SDS011;422;51.280;7.236;2022-07-23T10:46:54;13.83;;;12.90;;
870;SDS011;422;51.280;7.236;2022-07-23T10:49:34;12.07;;;11.27;;
870;SDS011;422;51.280;7.236;2022-07-23T10:52:24;11.83;;;11.03;;
870;SDS011;422;51.280;7.236;2022-07-23T10:54:54;13.30;;;12.30;;
870;SDS011;422;51.280;7.236;2022-07-23T10:57:23;14.67;;;13.37;;
870;SDS011;422;51.280;7.236;2022-07-23T11:02:49;13.63;;;12.60;;
870;SDS011;422;51.280;7.236;2022-07-23T11:05:18;14.13;;;13.13;;
870;SDS011;422;51.280;7.236;2022-07-23T11:10:49;13.40;;;12.50;;
870;SDS011;422;51.280;7.236;2022-07-23T11:13:26;13.10;;;12.23;;
870;SDS011;422;51.280;7.236;2022-07-23T11:16:05;13.07;;;12.17;;
870;SDS011;422;51.280;7.236;2022-07-23T11:21:42;12.90;;;12.00;;
870;SDS011;422;51.280;7.236;2022-07-23T11:24:15;13.90;;;12.90;;
870;SDS011;422;51.280;7.236;2022-07-23T11:26:46;12.43;;;11.53;;
870;SDS011;422;51.280;7.236;2022-07-23T11:32:24;10.60;;;9.50;;
870;SDS011;422;51.280;7.236;2022-07-23T11:34:56;14.63;;;8.70;;
870;SDS011;422;51.280;7.236;2022-07-23T11:37:27;10.63;;;9.83;;
870;SDS011;422;51.280;7.236;2022-07-23T11:40:03;12.37;;;11.37;;
870;SDS011;422;51.280;7.236;2022-07-23T11:42:37;10.10;;;9.30;;
870;SDS011;422;51.280;7.236;2022-07-23T11:45:18;11.43;;;10.60;;
870;SDS011;422;51.280;7.236;2022-07-23T11:48:06;12.13;;;11.10;;
870;SDS011;422;51.280;7.236;2022-07-23T11:50:35;10.20;;;9.40;;
870;SDS011;422;51.280;7.236;2022-07-23T11:53:04;8.93;;;8.17;;
870;SDS011;422;51.280;7.236;2022-07-23T11:55:33;9.00;;;7.83;;
870;SDS011;422;51.280;7.236;2022-07-23T11:58:02;9.07;;;8.27;;
870;SDS011;422;51.280;7.236;2022-07-23T12:00:29;9.50;;;8.80;;
870;SDS011;422;51.280;7.236;2022-07-23T12:02:59;9.50;;;8.80;;
870;SDS011;422;51.280;7.236;2022-07-23T12:05:30;9.57;;;8.77;;
870;SDS011;422;51.280;7.236;2022-07-23T12:07:59;9.30;;;8.40;;
870;SDS011;422;51.280;7.236;2022-07-23T12:10:28;7.77;;;6.10;;
870;SDS011;422;51.280;7.236;2022-07-23T12:12:58;5.40;;;4.90;;
870;SDS011;422;51.280;7.236;2022-07-23T12:15:27;5.70;;;5.30;;
870;SDS011;422;51.280;7.236;2022-07-23T12:17:58;6.23;;;5.70;;
870;SDS011;422;51.280;7.236;2022-07-23T12:20:27;5.17;;;4.77;;
870;SDS011;422;51.280;7.236;2022-07-23T12:22:56;5.37;;;4.97;;
870;SDS011;422;51.280;7.236;2022-07-23T12:25:25;5.23;;;4.83;;
870;SDS011;422;51.280;7.236;2022-07-23T12:28:05;4.30;;;4.00;;
870;SDS011;422;51.280;7.236;2022-07-23T12:30:37;4.80;;;4.40;;
870;SDS011;422;51.280;7.236;2022-07-23T12:33:09;5.43;;;5.03;;
870;SDS011;422;51.280;7.236;2022-07-23T12:35:40;5.20;;;4.80;;
870;SDS011;422;51.280;7.236;2022-07-23T12:38:09;4.30;;;3.90;;
870;SDS011;422;51.280;7.236;2022-07-23T12:40:41;4.27;;;3.97;;
870;SDS011;422;51.280;7.236;2022-07-23T12:43:18;4.23;;;3.93;;
870;SDS011;422;51.280;7.236;2022-07-23T12:45:48;4.13;;;3.83;;
870;SDS011;422;51.280;7.236;2022-07-23T12:48:20;4.27;;;3.97;;
870;SDS011;422;51.280;7.236;2022-07-23T12:53:44;4.27;;;3.80;;
870;SDS011;422;51.280;7.236;2022-07-23T12:56:15;3.80;;;3.50;;
870;SDS011;422;51.280;7.236;2022-07-23T12:58:53;4.17;;;3.83;;
870;SDS011;422;51.280;7.236;2022-07-23T13:01:27;4.33;;;3.90;;
870;SDS011;422;51.280;7.236;2022-07-23T13:03:58;6.47;;;3.73;;
870;SDS011;422;51.280;7.236;2022-07-23T13:06:28;3.80;;;3.50;;
870;SDS011;422;51.280;7.236;2022-07-23T13:08:57;3.83;;;3.53;;
870;SDS011;422;51.280;7.236;2022-07-23T13:11:25;3.83;;;3.53;;
870;SDS011;422;51.280;7.236;2022-07-23T13:13:54;4.17;;;3.87;;
870;SDS011;422;51.280;7.236;2022-07-23T13:16:21;4.37;;;3.97;;
870;SDS011;422;51.280;7.236;2022-07-23T13:18:50;5.00;;;4.03;;
870;SDS011;422;51.280;7.236;2022-07-23T13:21:21;4.43;;;4.03;;
870;SDS011;422;51.280;7.236;2022-07-23T13:23:48;4.53;;;4.13;;
870;SDS011;422;51.280;7.236;2022-07-23T13:26:16;4.17;;;3.87;;
870;SDS011;422;51.280;7.236;2022-07-23T13:28:47;4.03;;;3.63;;
870;SDS011;422;51.280;7.236;2022-07-23T13:31:17;3.90;;;3.60;;
870;SDS011;422;51.280;7.236;2022-07-23T13:33:45;4.53;;;4.10;;
870;SDS011;422;51.280;7.236;2022-07-23T13:36:12;4.70;;;4.20;;
870;SDS011;422;51.280;7.236;2022-07-23T13:38:40;3.90;;;3.50;;
870;SDS011;422;51.280;7.236;2022-07-23T13:41:07;4.53;;;4.13;;
870;SDS011;422;51.280;7.236;2022-07-23T13:43:35;4.93;;;3.60;;
870;SDS011;422;51.280;7.236;2022-07-23T13:46:02;4.70;;;4.30;;
870;SDS011;422;51.280;7.236;2022-07-23T13:48:37;4.80;;;4.40;;
870;SDS011;422;51.280;7.236;2022-07-23T13:51:07;4.00;;;3.67;;
870;SDS011;422;51.280;7.236;2022-07-23T13:53:34;4.10;;;3.80;;
870;SDS011;422;51.280;7.236;2022-07-23T13:56:04;4.57;;;4.13;;
870;SDS011;422;51.280;7.236;2022-07-23T13:58:35;4.93;;;4.53;;
870;SDS011;422;51.280;7.236;2022-07-23T14:01:03;5.20;;;4.80;;
870;SDS011;422;51.280;7.236;2022-07-23T14:03:31;4.80;;;4.40;;
870;SDS011;422;51.280;7.236;2022-07-23T14:06:00;4.17;;;3.87;;
870;SDS011;422;51.280;7.236;2022-07-23T14:08:34;5.63;;;4.80;;
870;SDS011;422;51.280;7.236;2022-07-23T14:11:01;5.37;;;4.97;;
870;SDS011;422;51.280;7.236;2022-07-23T14:13:28;5.30;;;4.80;;
870;SDS011;422;51.280;7.236;2022-07-23T14:15:56;5.67;;;4.37;;
870;SDS011;422;51.280;7.236;2022-07-23T14:18:28;10.33;;;5.13;;
870;SDS011;422;51.280;7.236;2022-07-23T14:20:55;4.53;;;4.23;;
870;SDS011;422;51.280;7.236;2022-07-23T14:23:25;5.37;;;4.53;;
870;SDS011;422;51.280;7.236;2022-07-23T14:25:52;4.83;;;4.43;;
870;SDS011;422;51.280;7.236;2022-07-23T14:28:19;5.17;;;4.60;;
870;SDS011;422;51.280;7.236;2022-07-23T14:30:46;4.77;;;4.30;;
870;SDS011;422;51.280;7.236;2022-07-23T14:33:14;5.30;;;4.83;;
870;SDS011;422;51.280;7.236;2022-07-23T14:35:41;5.03;;;4.43;;
870;SDS011;422;51.280;7.236;2022-07-23T14:38:08;4.63;;;4.27;;
870;SDS011;422;51.280;7.236;2022-07-23T14:40:39;5.87;;;4.80;;
870;SDS011;422;51.280;7.236;2022-07-23T14:43:09;5.50;;;4.60;;
870;SDS011;422;51.280;7.236;2022-07-23T14:45:38;5.97;;;5.47;;
870;SDS011;422;51.280;7.236;2022-07-23T14:48:07;5.70;;;5.30;;
870;SDS011;422;51.280;7.236;2022-07-23T14:50:34;5.70;;;5.30;;
870;SDS011;422;51.280;7.236;2022-07-23T14:53:02;5.40;;;4.90;;
870;SDS011;422;51.280;7.236;2022-07-23T14:55:30;5.23;;;4.80;;
870;SDS011;422;51.280;7.236;2022-07-23T14:58:02;5.70;;;5.10;;
870;SDS011;422;51.280;7.236;2022-07-23T15:00:38;5.10;;;4.70;;
870;SDS011;422;51.280;7.236;2022-07-23T15:03:05;5.43;;;5.00;;
870;SDS011;422;51.280;7.236;2022-07-23T15:05:34;6.03;;;5.63;;
870;SDS011;422;51.280;7.236;2022-07-23T15:08:08;5.27;;;4.77;;
870;SDS011;422;51.280;7.236;2022-07-23T15:10:42;5.83;;;5.37;;
870;SDS011;422;51.280;7.236;2022-07-23T15:13:16;6.27;;;5.77;;
870;SDS011;422;51.280;7.236;2022-07-23T15:15:47;7.13;;;4.37;;
870;SDS011;422;51.280;7.236;2022-07-23T15:18:15;5.60;;;5.10;;
870;SDS011;422;51.280;7.236;2022-07-23T15:20:47;5.37;;;4.90;;
870;SDS011;422;51.280;7.236;2022-07-23T15:23:14;6.47;;;5.93;;
870;SDS011;422;51.280;7.236;2022-07-23T15:25:41;6.70;;;6.10;;
870;SDS011;422;51.280;7.236;2022-07-23T15:28:09;5.80;;;5.40;;
870;SDS011;422;51.280;7.236;2022-07-23T15:30:38;6.27;;;5.80;;
870;SDS011;422;51.280;7.236;2022-07-23T15:33:05;6.10;;;5.70;;
870;SDS011;422;51.280;7.236;2022-07-23T15:35:35;8.33;;;7.30;;
870;SDS011;422;51.280;7.236;2022-07-23T15:38:02;6.67;;;6.17;;
870;SDS011;422;51.280;7.236;2022-07-23T15:40:32;6.10;;;5.47;;
870;SDS011;422;51.280;7.236;2022-07-23T15:43:04;6.40;;;5.80;;
870;SDS011;422;51.280;7.236;2022-07-23T15:45:34;5.20;;;4.80;;
870;SDS011;422;51.280;7.236;2022-07-23T15:48:06;7.10;;;6.50;;
870;SDS011;422;51.280;7.236;2022-07-23T15:50:34;6.87;;;6.17;;
870;SDS011;422;51.280;7.236;2022-07-23T15:53:01;6.93;;;6.23;;